sensor_id;sensor_type;location;lat;lon;timestamp;temperature;humidity
55213;DHT22;41083;52.932;6.674;2022-09-09T00:01:43;14.90;99.90
55213;DHT22;41083;52.932;6.674;2022-09-09T00:04:28;14.80;99.90
55213;DHT22;41083;52.932;6.674;2022-09-09T00:07:15;14.90;99.90
55213;DHT22;41083;52.932;6.674;2022-09-09T00:09:50;14.90;99.90
55213;DHT22;41083;52.932;6.674;2022-09-09T00:12:28;14.90;99.90
55213;DHT22;41083;52.932;6.674;2022-09-09T00:14:59;14.90;99.90
55213;DHT22;41083;52.932;6.674;2022-09-09T00:17:48;14.90;99.90
55213;DHT22;41083;52.932;6.674;2022-09-09T00:20:48;14.90;99.90
55213;DHT22;41083;52.932;6.674;2022-09-09T00:23:35;14.90;99.90
55213;DHT22;41083;52.932;6.674;2022-09-09T00:29:21;14.90;99.90
55213;DHT22;41083;52.932;6.674;2022-09-09T00:31:49;14.90;99.90
55213;DHT22;41083;52.932;6.674;2022-09-09T00:34:23;14.90;99.90
55213;DHT22;41083;52.932;6.674;2022-09-09T00:36:52;14.90;99.90
55213;DHT22;41083;52.932;6.674;2022-09-09T00:39:29;14.90;99.90
55213;DHT22;41083;52.932;6.674;2022-09-09T00:42:13;14.80;99.90
55213;DHT22;41083;52.932;6.674;2022-09-09T00:44:48;14.80;99.90
55213;DHT22;41083;52.932;6.674;2022-09-09T00:50:12;14.80;99.90
55213;DHT22;41083;52.932;6.674;2022-09-09T00:58:18;14.80;99.90
55213;DHT22;41083;52.932;6.674;2022-09-09T01:00:52;14.80;99.90
55213;DHT22;41083;52.932;6.674;2022-09-09T01:03:25;14.80;99.90
55213;DHT22;41083;52.932;6.674;2022-09-09T01:06:31;14.80;99.90
55213;DHT22;41083;52.932;6.674;2022-09-09T01:09:17;14.80;99.90
55213;DHT22;41083;52.932;6.674;2022-09-09T01:12:15;14.70;99.90
55213;DHT22;41083;52.932;6.674;2022-09-09T01:14:56;14.80;99.90
55213;DHT22;41083;52.932;6.674;2022-09-09T01:17:26;14.80;99.90
55213;DHT22;41083;52.932;6.674;2022-09-09T01:25:30;14.70;99.90
55213;DHT22;41083;52.932;6.674;2022-09-09T01:28:03;14.70;99.90
55213;DHT22;41083;52.932;6.674;2022-09-09T01:30:33;14.70;99.90
55213;DHT22;41083;52.932;6.674;2022-09-09T01:32:59;14.80;99.90
55213;DHT22;41083;52.932;6.674;2022-09-09T01:38:05;14.80;99.90
55213;DHT22;41083;52.932;6.674;2022-09-09T01:40:32;14.80;99.90
55213;DHT22;41083;52.932;6.674;2022-09-09T01:42:57;14.70;99.90
55213;DHT22;41083;52.932;6.674;2022-09-09T01:45:24;14.80;99.90
55213;DHT22;41083;52.932;6.674;2022-09-09T01:47:51;14.80;99.90
55213;DHT22;41083;52.932;6.674;2022-09-09T01:50:17;14.80;99.90
55213;DHT22;41083;52.932;6.674;2022-09-09T01:52:50;14.80;99.90
55213;DHT22;41083;52.932;6.674;2022-09-09T01:55:16;14.80;99.90
55213;DHT22;41083;52.932;6.674;2022-09-09T01:57:50;14.80;99.90
55213;DHT22;41083;52.932;6.674;2022-09-09T02:00:18;14.80;99.90
55213;DHT22;41083;52.932;6.674;2022-09-09T02:03:00;14.80;99.90
55213;DHT22;41083;52.932;6.674;2022-09-09T02:05:40;14.80;99.90
55213;DHT22;41083;52.932;6.674;2022-09-09T02:08:07;14.90;99.90
55213;DHT22;41083;52.932;6.674;2022-09-09T02:13:22;14.80;99.90
55213;DHT22;41083;52.932;6.674;2022-09-09T02:16:06;14.90;99.90
55213;DHT22;41083;52.932;6.674;2022-09-09T02:18:54;14.90;99.90
55213;DHT22;41083;52.932;6.674;2022-09-09T02:21:21;14.90;99.90
55213;DHT22;41083;52.932;6.674;2022-09-09T02:23:49;14.90;99.90
55213;DHT22;41083;52.932;6.674;2022-09-09T02:26:18;14.80;99.90
55213;DHT22;41083;52.932;6.674;2022-09-09T02:28:48;14.80;99.90
55213;DHT22;41083;52.932;6.674;2022-09-09T02:31:17;14.90;99.90
55213;DHT22;41083;52.932;6.674;2022-09-09T02:33:48;14.80;99.90
55213;DHT22;41083;52.932;6.674;2022-09-09T02:36:16;14.80;99.90
55213;DHT22;41083;52.932;6.674;2022-09-09T02:38:46;14.80;99.90
55213;DHT22;41083;52.932;6.674;2022-09-09T02:41:19;14.80;99.90
55213;DHT22;41083;52.932;6.674;2022-09-09T02:43:47;14.80;99.90
55213;DHT22;41083;52.932;6.674;2022-09-09T02:56:53;14.90;99.90
55213;DHT22;41083;52.932;6.674;2022-09-09T02:59:20;14.90;99.90
55213;DHT22;41083;52.932;6.674;2022-09-09T03:01:47;14.90;99.90
55213;DHT22;41083;52.932;6.674;2022-09-09T03:04:13;14.90;99.90
55213;DHT22;41083;52.932;6.674;2022-09-09T03:06:38;14.90;99.90
55213;DHT22;41083;52.932;6.674;2022-09-09T03:09:04;14.90;99.90
55213;DHT22;41083;52.932;6.674;2022-09-09T03:11:30;14.80;99.90
55213;DHT22;41083;52.932;6.674;2022-09-09T03:13:56;14.90;99.90
55213;DHT22;41083;52.932;6.674;2022-09-09T03:16:24;14.90;99.90
55213;DHT22;41083;52.932;6.674;2022-09-09T03:18:50;14.90;99.90
55213;DHT22;41083;52.932;6.674;2022-09-09T03:21:16;14.90;99.90
55213;DHT22;41083;52.932;6.674;2022-09-09T03:23:41;14.90;99.90
55213;DHT22;41083;52.932;6.674;2022-09-09T03:26:07;14.90;99.90
55213;DHT22;41083;52.932;6.674;2022-09-09T03:28:33;14.90;99.90
55213;DHT22;41083;52.932;6.674;2022-09-09T03:31:05;14.90;99.90
55213;DHT22;41083;52.932;6.674;2022-09-09T03:33:31;14.90;99.90
55213;DHT22;41083;52.932;6.674;2022-09-09T03:35:57;14.90;99.90
55213;DHT22;41083;52.932;6.674;2022-09-09T03:38:26;14.90;99.90
55213;DHT22;41083;52.932;6.674;2022-09-09T03:40:56;15.00;99.90
55213;DHT22;41083;52.932;6.674;2022-09-09T03:43:26;14.90;99.90
55213;DHT22;41083;52.932;6.674;2022-09-09T03:45:53;15.00;99.90
55213;DHT22;41083;52.932;6.674;2022-09-09T03:48:19;15.00;99.90
55213;DHT22;41083;52.932;6.674;2022-09-09T03:50:50;15.00;99.90
55213;DHT22;41083;52.932;6.674;2022-09-09T03:53:17;15.00;99.90
55213;DHT22;41083;52.932;6.674;2022-09-09T03:55:50;15.00;99.90
55213;DHT22;41083;52.932;6.674;2022-09-09T03:58:18;15.00;99.90
55213;DHT22;41083;52.932;6.674;2022-09-09T04:01:13;15.00;99.90
55213;DHT22;41083;52.932;6.674;2022-09-09T04:03:43;15.00;99.90
55213;DHT22;41083;52.932;6.674;2022-09-09T04:06:11;15.00;99.90
55213;DHT22;41083;52.932;6.674;2022-09-09T04:08:39;15.00;99.90
55213;DHT22;41083;52.932;6.674;2022-09-09T04:11:05;14.90;99.90
55213;DHT22;41083;52.932;6.674;2022-09-09T04:13:37;14.90;99.90
55213;DHT22;41083;52.932;6.674;2022-09-09T04:16:04;14.90;99.90
55213;DHT22;41083;52.932;6.674;2022-09-09T04:18:31;14.90;99.90
55213;DHT22;41083;52.932;6.674;2022-09-09T04:20:57;15.00;99.90
55213;DHT22;41083;52.932;6.674;2022-09-09T04:23:24;14.90;99.90
55213;DHT22;41083;52.932;6.674;2022-09-09T04:25:52;14.90;99.90
55213;DHT22;41083;52.932;6.674;2022-09-09T04:28:19;14.90;99.90
55213;DHT22;41083;52.932;6.674;2022-09-09T04:30:46;14.90;99.90
55213;DHT22;41083;52.932;6.674;2022-09-09T04:33:12;14.90;99.90
55213;DHT22;41083;52.932;6.674;2022-09-09T04:35:39;14.90;99.90
55213;DHT22;41083;52.932;6.674;2022-09-09T04:38:05;14.90;99.90
55213;DHT22;41083;52.932;6.674;2022-09-09T04:40:35;14.90;99.90
55213;DHT22;41083;52.932;6.674;2022-09-09T04:43:02;14.90;99.90
55213;DHT22;41083;52.932;6.674;2022-09-09T04:45:31;14.90;99.90
55213;DHT22;41083;52.932;6.674;2022-09-09T04:47:57;14.90;99.90
55213;DHT22;41083;52.932;6.674;2022-09-09T04:50:23;14.90;99.90
55213;DHT22;41083;52.932;6.674;2022-09-09T04:52:48;14.90;99.90
55213;DHT22;41083;52.932;6.674;2022-09-09T04:55:14;14.90;99.90
55213;DHT22;41083;52.932;6.674;2022-09-09T04:57:40;14.90;99.90
55213;DHT22;41083;52.932;6.674;2022-09-09T05:00:06;14.90;99.90
55213;DHT22;41083;52.932;6.674;2022-09-09T05:02:33;14.90;99.90
55213;DHT22;41083;52.932;6.674;2022-09-09T05:05:02;14.90;99.90
55213;DHT22;41083;52.932;6.674;2022-09-09T05:07:27;14.90;99.90
55213;DHT22;41083;52.932;6.674;2022-09-09T05:09:54;14.90;99.90
55213;DHT22;41083;52.932;6.674;2022-09-09T05:12:19;14.90;99.90
55213;DHT22;41083;52.932;6.674;2022-09-09T05:14:45;14.80;99.90
55213;DHT22;41083;52.932;6.674;2022-09-09T05:17:11;14.80;99.90
55213;DHT22;41083;52.932;6.674;2022-09-09T05:19:36;14.80;99.90
55213;DHT22;41083;52.932;6.674;2022-09-09T05:22:02;14.80;99.90
55213;DHT22;41083;52.932;6.674;2022-09-09T05:24:28;14.80;99.90
55213;DHT22;41083;52.932;6.674;2022-09-09T05:26:54;14.80;99.90
55213;DHT22;41083;52.932;6.674;2022-09-09T05:29:24;14.80;99.90
55213;DHT22;41083;52.932;6.674;2022-09-09T05:31:49;14.80;99.90
55213;DHT22;41083;52.932;6.674;2022-09-09T05:34:15;14.90;99.90
55213;DHT22;41083;52.932;6.674;2022-09-09T05:36:41;14.80;99.90
55213;DHT22;41083;52.932;6.674;2022-09-09T05:39:06;14.80;99.90
55213;DHT22;41083;52.932;6.674;2022-09-09T05:41:32;14.80;99.90
55213;DHT22;41083;52.932;6.674;2022-09-09T05:43:58;14.90;99.90
55213;DHT22;41083;52.932;6.674;2022-09-09T05:46:26;14.80;99.90
55213;DHT22;41083;52.932;6.674;2022-09-09T05:48:53;14.80;99.90
55213;DHT22;41083;52.932;6.674;2022-09-09T05:51:21;14.80;99.90
55213;DHT22;41083;52.932;6.674;2022-09-09T05:53:48;14.80;99.90
55213;DHT22;41083;52.932;6.674;2022-09-09T05:56:19;14.80;99.90
55213;DHT22;41083;52.932;6.674;2022-09-09T05:58:45;14.80;99.90
55213;DHT22;41083;52.932;6.674;2022-09-09T06:01:19;14.80;99.90
55213;DHT22;41083;52.932;6.674;2022-09-09T06:03:47;14.90;99.90
55213;DHT22;41083;52.932;6.674;2022-09-09T06:06:18;14.90;99.90
55213;DHT22;41083;52.932;6.674;2022-09-09T06:08:46;14.90;99.90
55213;DHT22;41083;52.932;6.674;2022-09-09T06:11:15;14.90;99.90
55213;DHT22;41083;52.932;6.674;2022-09-09T06:13:41;14.90;99.90
55213;DHT22;41083;52.932;6.674;2022-09-09T06:16:12;14.90;99.90
55213;DHT22;41083;52.932;6.674;2022-09-09T06:18:38;15.00;99.90
55213;DHT22;41083;52.932;6.674;2022-09-09T06:21:06;14.90;99.90
55213;DHT22;41083;52.932;6.674;2022-09-09T06:23:33;15.00;99.90
55213;DHT22;41083;52.932;6.674;2022-09-09T06:28:46;15.00;99.90
55213;DHT22;41083;52.932;6.674;2022-09-09T06:31:14;15.00;99.90
55213;DHT22;41083;52.932;6.674;2022-09-09T06:33:42;15.00;99.90
55213;DHT22;41083;52.932;6.674;2022-09-09T06:36:16;15.00;99.90
55213;DHT22;41083;52.932;6.674;2022-09-09T06:38:43;15.10;99.90
55213;DHT22;41083;52.932;6.674;2022-09-09T06:41:10;15.10;99.90
55213;DHT22;41083;52.932;6.674;2022-09-09T06:43:36;15.10;99.90
55213;DHT22;41083;52.932;6.674;2022-09-09T06:46:05;15.10;99.90
55213;DHT22;41083;52.932;6.674;2022-09-09T06:48:31;15.10;99.90
55213;DHT22;41083;52.932;6.674;2022-09-09T06:51:18;15.10;99.90
55213;DHT22;41083;52.932;6.674;2022-09-09T06:53:45;15.10;99.90
55213;DHT22;41083;52.932;6.674;2022-09-09T06:58:40;15.20;99.90
55213;DHT22;41083;52.932;6.674;2022-09-09T07:01:14;15.20;99.90
55213;DHT22;41083;52.932;6.674;2022-09-09T07:03:40;15.20;99.90
55213;DHT22;41083;52.932;6.674;2022-09-09T07:06:09;15.20;99.90
55213;DHT22;41083;52.932;6.674;2022-09-09T07:08:39;15.30;99.90
55213;DHT22;41083;52.932;6.674;2022-09-09T07:11:07;15.30;99.90
55213;DHT22;41083;52.932;6.674;2022-09-09T07:13:33;15.30;99.90
55213;DHT22;41083;52.932;6.674;2022-09-09T07:16:10;15.40;99.90
55213;DHT22;41083;52.932;6.674;2022-09-09T07:18:36;15.40;99.90
55213;DHT22;41083;52.932;6.674;2022-09-09T07:21:02;15.50;99.90
55213;DHT22;41083;52.932;6.674;2022-09-09T07:23:29;15.50;99.90
55213;DHT22;41083;52.932;6.674;2022-09-09T07:25:56;15.50;99.90
55213;DHT22;41083;52.932;6.674;2022-09-09T07:28:24;15.60;99.90
55213;DHT22;41083;52.932;6.674;2022-09-09T07:30:54;15.60;99.90
55213;DHT22;41083;52.932;6.674;2022-09-09T07:33:20;15.70;99.90
55213;DHT22;41083;52.932;6.674;2022-09-09T07:35:45;15.80;99.90
55213;DHT22;41083;52.932;6.674;2022-09-09T07:38:11;15.80;99.90
55213;DHT22;41083;52.932;6.674;2022-09-09T07:40:37;15.80;99.90
55213;DHT22;41083;52.932;6.674;2022-09-09T07:43:03;15.90;99.90
55213;DHT22;41083;52.932;6.674;2022-09-09T07:45:28;15.90;99.90
55213;DHT22;41083;52.932;6.674;2022-09-09T07:47:54;15.90;99.90
55213;DHT22;41083;52.932;6.674;2022-09-09T07:50:22;15.90;99.90
55213;DHT22;41083;52.932;6.674;2022-09-09T07:52:49;16.00;99.90
55213;DHT22;41083;52.932;6.674;2022-09-09T07:55:15;16.00;99.90
55213;DHT22;41083;52.932;6.674;2022-09-09T07:57:40;16.10;99.90
55213;DHT22;41083;52.932;6.674;2022-09-09T08:00:06;16.10;99.90
55213;DHT22;41083;52.932;6.674;2022-09-09T08:02:32;16.10;99.90
55213;DHT22;41083;52.932;6.674;2022-09-09T08:04:58;16.10;99.90
55213;DHT22;41083;52.932;6.674;2022-09-09T08:07:23;16.10;99.90
55213;DHT22;41083;52.932;6.674;2022-09-09T08:09:49;16.10;99.90
55213;DHT22;41083;52.932;6.674;2022-09-09T08:12:15;16.20;99.90
55213;DHT22;41083;52.932;6.674;2022-09-09T08:14:41;16.20;99.90
55213;DHT22;41083;52.932;6.674;2022-09-09T08:17:07;16.30;99.90
55213;DHT22;41083;52.932;6.674;2022-09-09T08:19:33;16.30;99.90
55213;DHT22;41083;52.932;6.674;2022-09-09T08:22:02;16.30;99.90
55213;DHT22;41083;52.932;6.674;2022-09-09T08:24:28;16.40;99.90
55213;DHT22;41083;52.932;6.674;2022-09-09T08:26:53;16.50;99.90
55213;DHT22;41083;52.932;6.674;2022-09-09T08:29:19;16.50;99.90
55213;DHT22;41083;52.932;6.674;2022-09-09T08:31:48;16.50;99.90
55213;DHT22;41083;52.932;6.674;2022-09-09T08:34:14;16.40;99.90
55213;DHT22;41083;52.932;6.674;2022-09-09T08:36:42;16.60;99.90
55213;DHT22;41083;52.932;6.674;2022-09-09T08:39:09;16.60;99.90
55213;DHT22;41083;52.932;6.674;2022-09-09T08:41:40;16.70;99.90
55213;DHT22;41083;52.932;6.674;2022-09-09T08:52:28;16.80;99.90
55213;DHT22;41083;52.932;6.674;2022-09-09T08:54:58;16.90;99.90
55213;DHT22;41083;52.932;6.674;2022-09-09T08:57:28;16.80;99.90
55213;DHT22;41083;52.932;6.674;2022-09-09T08:59:56;16.90;99.90
55213;DHT22;41083;52.932;6.674;2022-09-09T09:02:37;17.00;99.90
55213;DHT22;41083;52.932;6.674;2022-09-09T09:05:12;17.00;99.90
55213;DHT22;41083;52.932;6.674;2022-09-09T09:13:32;17.00;99.90
55213;DHT22;41083;52.932;6.674;2022-09-09T09:16:02;17.00;99.90
55213;DHT22;41083;52.932;6.674;2022-09-09T09:18:30;17.00;99.90
55213;DHT22;41083;52.932;6.674;2022-09-09T09:23:51;17.00;99.90
55213;DHT22;41083;52.932;6.674;2022-09-09T09:26:19;17.10;99.90
55213;DHT22;41083;52.932;6.674;2022-09-09T09:28:47;17.20;99.90
55213;DHT22;41083;52.932;6.674;2022-09-09T09:31:13;17.10;99.90
55213;DHT22;41083;52.932;6.674;2022-09-09T09:33:48;17.20;99.90
55213;DHT22;41083;52.932;6.674;2022-09-09T09:36:15;17.20;99.90
55213;DHT22;41083;52.932;6.674;2022-09-09T09:38:59;17.10;99.90
55213;DHT22;41083;52.932;6.674;2022-09-09T09:41:43;17.20;99.90
55213;DHT22;41083;52.932;6.674;2022-09-09T09:46:48;17.10;99.90
55213;DHT22;41083;52.932;6.674;2022-09-09T09:49:13;17.20;99.90
55213;DHT22;41083;52.932;6.674;2022-09-09T09:51:39;17.30;99.90
55213;DHT22;41083;52.932;6.674;2022-09-09T09:56:42;17.40;99.90
55213;DHT22;41083;52.932;6.674;2022-09-09T10:01:53;17.40;99.90
55213;DHT22;41083;52.932;6.674;2022-09-09T10:04:21;17.40;99.90
55213;DHT22;41083;52.932;6.674;2022-09-09T10:06:49;17.40;99.90
55213;DHT22;41083;52.932;6.674;2022-09-09T10:12:06;17.50;99.90
55213;DHT22;41083;52.932;6.674;2022-09-09T10:17:29;17.60;99.90
55213;DHT22;41083;52.932;6.674;2022-09-09T10:20:24;17.60;99.90
55213;DHT22;41083;52.932;6.674;2022-09-09T10:23:18;17.70;99.90
55213;DHT22;41083;52.932;6.674;2022-09-09T10:26:02;17.70;99.90
55213;DHT22;41083;52.932;6.674;2022-09-09T10:29:02;17.70;99.90
55213;DHT22;41083;52.932;6.674;2022-09-09T10:40:34;17.70;99.90
55213;DHT22;41083;52.932;6.674;2022-09-09T10:46:16;17.70;99.90
55213;DHT22;41083;52.932;6.674;2022-09-09T10:57:20;18.00;99.90
55213;DHT22;41083;52.932;6.674;2022-09-09T10:59:51;18.10;99.90
55213;DHT22;41083;52.932;6.674;2022-09-09T11:02:27;18.10;99.90
55213;DHT22;41083;52.932;6.674;2022-09-09T11:04:55;18.10;99.90
55213;DHT22;41083;52.932;6.674;2022-09-09T11:10:01;18.20;99.90
55213;DHT22;41083;52.932;6.674;2022-09-09T11:12:28;18.30;99.90
55213;DHT22;41083;52.932;6.674;2022-09-09T11:15:08;18.30;99.90
55213;DHT22;41083;52.932;6.674;2022-09-09T11:17:44;18.30;99.90
55213;DHT22;41083;52.932;6.674;2022-09-09T11:20:13;18.40;99.90
55213;DHT22;41083;52.932;6.674;2022-09-09T11:22:56;18.20;99.90
55213;DHT22;41083;52.932;6.674;2022-09-09T11:25:45;18.20;99.90
55213;DHT22;41083;52.932;6.674;2022-09-09T11:31:24;18.10;99.90
55213;DHT22;41083;52.932;6.674;2022-09-09T11:34:32;18.10;99.90
55213;DHT22;41083;52.932;6.674;2022-09-09T11:37:08;18.00;99.90
55213;DHT22;41083;52.932;6.674;2022-09-09T11:39:58;17.90;99.90
55213;DHT22;41083;52.932;6.674;2022-09-09T11:42:26;17.90;99.90
55213;DHT22;41083;52.932;6.674;2022-09-09T11:44:52;18.00;99.90
55213;DHT22;41083;52.932;6.674;2022-09-09T11:47:30;18.10;99.90
55213;DHT22;41083;52.932;6.674;2022-09-09T11:50:56;18.10;99.90
55213;DHT22;41083;52.932;6.674;2022-09-09T11:53:05;18.10;99.90
55213;DHT22;41083;52.932;6.674;2022-09-09T11:55:33;18.10;99.90
55213;DHT22;41083;52.932;6.674;2022-09-09T11:58:00;18.10;99.90
55213;DHT22;41083;52.932;6.674;2022-09-09T12:02:58;18.10;99.90
55213;DHT22;41083;52.932;6.674;2022-09-09T12:05:39;18.10;99.90
55213;DHT22;41083;52.932;6.674;2022-09-09T12:08:09;18.10;99.90
55213;DHT22;41083;52.932;6.674;2022-09-09T12:10:39;18.10;99.90
55213;DHT22;41083;52.932;6.674;2022-09-09T12:13:23;18.20;99.90
55213;DHT22;41083;52.932;6.674;2022-09-09T12:15:54;18.30;99.90
55213;DHT22;41083;52.932;6.674;2022-09-09T12:21:25;18.40;99.90
55213;DHT22;41083;52.932;6.674;2022-09-09T12:23:57;18.40;99.90
55213;DHT22;41083;52.932;6.674;2022-09-09T12:26:31;18.50;99.90
55213;DHT22;41083;52.932;6.674;2022-09-09T12:29:11;18.50;99.90
55213;DHT22;41083;52.932;6.674;2022-09-09T12:31:41;18.60;99.90
55213;DHT22;41083;52.932;6.674;2022-09-09T12:34:11;18.60;99.90
55213;DHT22;41083;52.932;6.674;2022-09-09T12:36:41;18.60;99.90
55213;DHT22;41083;52.932;6.674;2022-09-09T12:39:21;18.50;99.90
55213;DHT22;41083;52.932;6.674;2022-09-09T12:41:52;18.50;99.90
55213;DHT22;41083;52.932;6.674;2022-09-09T12:44:24;18.50;99.90
55213;DHT22;41083;52.932;6.674;2022-09-09T12:46:51;18.60;99.90
55213;DHT22;41083;52.932;6.674;2022-09-09T12:49:26;18.60;99.90
55213;DHT22;41083;52.932;6.674;2022-09-09T12:51:52;18.70;99.90
55213;DHT22;41083;52.932;6.674;2022-09-09T12:54:19;18.70;99.90
55213;DHT22;41083;52.932;6.674;2022-09-09T12:56:46;18.70;99.90
55213;DHT22;41083;52.932;6.674;2022-09-09T12:59:25;18.70;99.90
55213;DHT22;41083;52.932;6.674;2022-09-09T13:01:57;18.70;99.90
55213;DHT22;41083;52.932;6.674;2022-09-09T13:04:23;18.70;99.90
55213;DHT22;41083;52.932;6.674;2022-09-09T13:06:49;18.60;99.90
55213;DHT22;41083;52.932;6.674;2022-09-09T13:09:15;18.60;99.90
55213;DHT22;41083;52.932;6.674;2022-09-09T13:11:42;18.60;99.90
55213;DHT22;41083;52.932;6.674;2022-09-09T13:14:25;18.50;99.90
55213;DHT22;41083;52.932;6.674;2022-09-09T13:16:57;18.40;99.90
55213;DHT22;41083;52.932;6.674;2022-09-09T13:19:24;18.20;99.90
55213;DHT22;41083;52.932;6.674;2022-09-09T13:21:54;18.00;99.90
55213;DHT22;41083;52.932;6.674;2022-09-09T13:24:34;17.80;99.90
55213;DHT22;41083;52.932;6.674;2022-09-09T13:27:04;17.80;99.90
55213;DHT22;41083;52.932;6.674;2022-09-09T13:29:31;17.80;99.90
55213;DHT22;41083;52.932;6.674;2022-09-09T13:32:04;17.80;99.90
55213;DHT22;41083;52.932;6.674;2022-09-09T13:34:34;17.80;99.90
55213;DHT22;41083;52.932;6.674;2022-09-09T13:37:05;18.00;99.90
55213;DHT22;41083;52.932;6.674;2022-09-09T13:39:34;18.10;99.90
55213;DHT22;41083;52.932;6.674;2022-09-09T13:42:01;18.10;99.90
55213;DHT22;41083;52.932;6.674;2022-09-09T13:44:36;18.20;99.90
55213;DHT22;41083;52.932;6.674;2022-09-09T13:47:21;18.30;99.90
55213;DHT22;41083;52.932;6.674;2022-09-09T13:49:48;18.30;99.90
55213;DHT22;41083;52.932;6.674;2022-09-09T13:52:16;18.40;99.90
55213;DHT22;41083;52.932;6.674;2022-09-09T13:54:49;18.40;99.90
55213;DHT22;41083;52.932;6.674;2022-09-09T13:57:17;18.30;99.90
55213;DHT22;41083;52.932;6.674;2022-09-09T13:59:45;18.30;99.90
55213;DHT22;41083;52.932;6.674;2022-09-09T14:02:11;18.20;99.90
55213;DHT22;41083;52.932;6.674;2022-09-09T14:04:36;18.20;99.90
55213;DHT22;41083;52.932;6.674;2022-09-09T14:07:03;18.20;99.90
55213;DHT22;41083;52.932;6.674;2022-09-09T14:09:29;18.20;99.90
55213;DHT22;41083;52.932;6.674;2022-09-09T14:11:54;18.20;99.90
55213;DHT22;41083;52.932;6.674;2022-09-09T14:14:23;18.20;99.90
55213;DHT22;41083;52.932;6.674;2022-09-09T14:16:48;18.30;99.90
55213;DHT22;41083;52.932;6.674;2022-09-09T14:19:14;18.30;99.90
55213;DHT22;41083;52.932;6.674;2022-09-09T14:21:39;18.30;99.90
55213;DHT22;41083;52.932;6.674;2022-09-09T14:24:05;18.30;99.90
55213;DHT22;41083;52.932;6.674;2022-09-09T14:26:31;18.30;99.90
55213;DHT22;41083;52.932;6.674;2022-09-09T14:28:57;18.30;99.90
55213;DHT22;41083;52.932;6.674;2022-09-09T14:31:23;18.30;99.90
55213;DHT22;41083;52.932;6.674;2022-09-09T14:33:49;18.30;99.90
55213;DHT22;41083;52.932;6.674;2022-09-09T14:36:16;18.20;99.90
55213;DHT22;41083;52.932;6.674;2022-09-09T14:38:42;18.30;99.90
55213;DHT22;41083;52.932;6.674;2022-09-09T14:41:16;18.30;99.90
55213;DHT22;41083;52.932;6.674;2022-09-09T14:43:42;18.40;99.90
55213;DHT22;41083;52.932;6.674;2022-09-09T14:46:10;18.50;99.90
55213;DHT22;41083;52.932;6.674;2022-09-09T14:48:37;18.50;99.90
55213;DHT22;41083;52.932;6.674;2022-09-09T14:51:11;18.50;99.90
55213;DHT22;41083;52.932;6.674;2022-09-09T14:53:38;18.50;99.90
55213;DHT22;41083;52.932;6.674;2022-09-09T14:56:11;18.50;99.90
55213;DHT22;41083;52.932;6.674;2022-09-09T14:58:38;18.50;99.90
55213;DHT22;41083;52.932;6.674;2022-09-09T15:01:08;18.60;99.90
55213;DHT22;41083;52.932;6.674;2022-09-09T15:03:36;18.50;99.90
55213;DHT22;41083;52.932;6.674;2022-09-09T15:06:12;18.50;99.90
55213;DHT22;41083;52.932;6.674;2022-09-09T15:08:40;18.50;99.90
55213;DHT22;41083;52.932;6.674;2022-09-09T15:11:07;18.40;99.90
55213;DHT22;41083;52.932;6.674;2022-09-09T15:13:34;18.40;99.90
55213;DHT22;41083;52.932;6.674;2022-09-09T15:16:07;18.40;99.90
55213;DHT22;41083;52.932;6.674;2022-09-09T15:18:33;18.30;99.90
55213;DHT22;41083;52.932;6.674;2022-09-09T15:21:02;18.30;99.90
55213;DHT22;41083;52.932;6.674;2022-09-09T15:23:28;18.30;99.90
55213;DHT22;41083;52.932;6.674;2022-09-09T15:25:56;18.20;99.90
55213;DHT22;41083;52.932;6.674;2022-09-09T15:28:22;18.30;99.90
55213;DHT22;41083;52.932;6.674;2022-09-09T15:30:52;18.30;99.90
55213;DHT22;41083;52.932;6.674;2022-09-09T15:33:19;18.30;99.90
55213;DHT22;41083;52.932;6.674;2022-09-09T15:35:45;18.30;99.90
55213;DHT22;41083;52.932;6.674;2022-09-09T15:38:11;18.20;99.90
55213;DHT22;41083;52.932;6.674;2022-09-09T15:40:38;18.20;99.90
55213;DHT22;41083;52.932;6.674;2022-09-09T15:43:05;18.20;99.90
55213;DHT22;41083;52.932;6.674;2022-09-09T15:45:32;18.20;99.90
55213;DHT22;41083;52.932;6.674;2022-09-09T15:48:02;18.10;99.90
55213;DHT22;41083;52.932;6.674;2022-09-09T15:50:28;18.10;99.90
55213;DHT22;41083;52.932;6.674;2022-09-09T15:52:56;18.10;99.90
55213;DHT22;41083;52.932;6.674;2022-09-09T15:55:22;18.10;99.90
55213;DHT22;41083;52.932;6.674;2022-09-09T15:57:51;18.10;99.90
55213;DHT22;41083;52.932;6.674;2022-09-09T16:00:19;18.10;99.90
55213;DHT22;41083;52.932;6.674;2022-09-09T16:02:49;18.20;99.90
55213;DHT22;41083;52.932;6.674;2022-09-09T16:05:15;18.10;99.90
55213;DHT22;41083;52.932;6.674;2022-09-09T16:07:40;18.10;99.90
55213;DHT22;41083;52.932;6.674;2022-09-09T16:10:08;18.10;99.90
55213;DHT22;41083;52.932;6.674;2022-09-09T16:12:33;18.10;99.90
55213;DHT22;41083;52.932;6.674;2022-09-09T16:14:59;18.10;99.90
55213;DHT22;41083;52.932;6.674;2022-09-09T16:17:25;18.00;99.90
55213;DHT22;41083;52.932;6.674;2022-09-09T16:19:50;18.00;99.90
55213;DHT22;41083;52.932;6.674;2022-09-09T16:22:16;17.90;99.90
55213;DHT22;41083;52.932;6.674;2022-09-09T16:24:43;17.90;99.90
55213;DHT22;41083;52.932;6.674;2022-09-09T16:27:10;17.90;99.90
55213;DHT22;41083;52.932;6.674;2022-09-09T16:29:36;17.90;99.90
55213;DHT22;41083;52.932;6.674;2022-09-09T16:32:02;17.90;99.90
55213;DHT22;41083;52.932;6.674;2022-09-09T16:34:29;17.80;99.90
55213;DHT22;41083;52.932;6.674;2022-09-09T16:36:54;17.90;99.90
55213;DHT22;41083;52.932;6.674;2022-09-09T16:39:21;17.80;99.90
55213;DHT22;41083;52.932;6.674;2022-09-09T16:41:47;17.80;99.90
55213;DHT22;41083;52.932;6.674;2022-09-09T16:44:15;17.80;99.90
55213;DHT22;41083;52.932;6.674;2022-09-09T16:46:42;17.80;99.90
55213;DHT22;41083;52.932;6.674;2022-09-09T16:49:13;17.90;99.90
55213;DHT22;41083;52.932;6.674;2022-09-09T16:51:50;17.90;99.90
55213;DHT22;41083;52.932;6.674;2022-09-09T16:54:19;17.90;99.90
55213;DHT22;41083;52.932;6.674;2022-09-09T16:56:47;17.90;99.90
55213;DHT22;41083;52.932;6.674;2022-09-09T16:59:18;17.90;99.90
55213;DHT22;41083;52.932;6.674;2022-09-09T17:01:45;17.80;99.90
55213;DHT22;41083;52.932;6.674;2022-09-09T17:04:17;17.80;99.90
55213;DHT22;41083;52.932;6.674;2022-09-09T17:06:47;17.80;99.90
55213;DHT22;41083;52.932;6.674;2022-09-09T17:09:15;17.80;99.90
55213;DHT22;41083;52.932;6.674;2022-09-09T17:11:41;17.70;99.90
55213;DHT22;41083;52.932;6.674;2022-09-09T17:14:10;17.70;99.90
55213;DHT22;41083;52.932;6.674;2022-09-09T17:16:36;17.70;99.90
55213;DHT22;41083;52.932;6.674;2022-09-09T17:19:04;17.70;99.90
55213;DHT22;41083;52.932;6.674;2022-09-09T17:21:31;17.70;99.90
55213;DHT22;41083;52.932;6.674;2022-09-09T17:23:57;17.60;99.90
55213;DHT22;41083;52.932;6.674;2022-09-09T17:26:26;17.70;99.90
55213;DHT22;41083;52.932;6.674;2022-09-09T17:28:53;17.60;99.90